sensor_id;sensor_type;location;lat;lon;timestamp;P1;durP1;ratioP1;P2;durP2;ratioP2
43682;SDS011;29285;52.128;21.060;2022-08-16T00:03:51;17.20;;;15.60;;
43682;SDS011;29285;52.128;21.060;2022-08-16T00:08:53;18.65;;;15.60;;
43682;SDS011;29285;52.128;21.060;2022-08-16T00:13:55;17.55;;;15.63;;
43682;SDS011;29285;52.128;21.060;2022-08-16T00:19:01;16.12;;;14.73;;
43682;SDS011;29285;52.128;21.060;2022-08-16T00:23:59;17.82;;;15.93;;
43682;SDS011;29285;52.128;21.060;2022-08-16T00:29:01;16.97;;;15.23;;
43682;SDS011;29285;52.128;21.060;2022-08-16T00:34:03;17.70;;;15.95;;
43682;SDS011;29285;52.128;21.060;2022-08-16T00:39:04;16.82;;;15.28;;
43682;SDS011;29285;52.128;21.060;2022-08-16T00:44:06;16.67;;;15.18;;
43682;SDS011;29285;52.128;21.060;2022-08-16T00:49:10;18.15;;;16.32;;
43682;SDS011;29285;52.128;21.060;2022-08-16T00:54:13;16.23;;;14.70;;
43682;SDS011;29285;52.128;21.060;2022-08-16T00:59:15;20.23;;;15.85;;
43682;SDS011;29285;52.128;21.060;2022-08-16T01:04:20;16.12;;;14.68;;
43682;SDS011;29285;52.128;21.060;2022-08-16T01:09:24;15.98;;;14.47;;
43682;SDS011;29285;52.128;21.060;2022-08-16T01:14:27;17.75;;;16.15;;
43682;SDS011;29285;52.128;21.060;2022-08-16T01:19:32;15.48;;;13.93;;
43682;SDS011;29285;52.128;21.060;2022-08-16T01:24:48;17.42;;;15.72;;
43682;SDS011;29285;52.128;21.060;2022-08-16T01:35:22;16.17;;;14.83;;
43682;SDS011;29285;52.128;21.060;2022-08-16T01:40:26;17.37;;;14.40;;
43682;SDS011;29285;52.128;21.060;2022-08-16T01:45:30;16.15;;;14.55;;
43682;SDS011;29285;52.128;21.060;2022-08-16T01:50:31;16.67;;;15.10;;
43682;SDS011;29285;52.128;21.060;2022-08-16T01:55:33;15.87;;;14.07;;
43682;SDS011;29285;52.128;21.060;2022-08-16T02:00:35;15.98;;;14.53;;
43682;SDS011;29285;52.128;21.060;2022-08-16T02:22:08;15.28;;;13.88;;
43682;SDS011;29285;52.128;21.060;2022-08-16T02:27:12;16.00;;;14.40;;
43682;SDS011;29285;52.128;21.060;2022-08-16T02:32:14;16.25;;;14.60;;
43682;SDS011;29285;52.128;21.060;2022-08-16T02:37:16;15.53;;;14.00;;
43682;SDS011;29285;52.128;21.060;2022-08-16T02:42:17;14.95;;;13.55;;
43682;SDS011;29285;52.128;21.060;2022-08-16T02:47:19;15.28;;;13.62;;
43682;SDS011;29285;52.128;21.060;2022-08-16T02:52:20;14.68;;;13.28;;
43682;SDS011;29285;52.128;21.060;2022-08-16T02:57:23;15.00;;;13.57;;
43682;SDS011;29285;52.128;21.060;2022-08-16T03:02:24;15.58;;;14.07;;
43682;SDS011;29285;52.128;21.060;2022-08-16T03:07:27;14.90;;;13.50;;
43682;SDS011;29285;52.128;21.060;2022-08-16T03:12:28;14.28;;;13.03;;
43682;SDS011;29285;52.128;21.060;2022-08-16T03:17:29;14.40;;;13.08;;
43682;SDS011;29285;52.128;21.060;2022-08-16T03:22:30;15.90;;;14.23;;
43682;SDS011;29285;52.128;21.060;2022-08-16T03:27:32;15.40;;;13.80;;
43682;SDS011;29285;52.128;21.060;2022-08-16T03:32:33;15.35;;;13.80;;
43682;SDS011;29285;52.128;21.060;2022-08-16T03:37:35;15.35;;;14.05;;
43682;SDS011;29285;52.128;21.060;2022-08-16T03:42:36;14.93;;;13.72;;
43682;SDS011;29285;52.128;21.060;2022-08-16T03:47:38;14.83;;;13.43;;
43682;SDS011;29285;52.128;21.060;2022-08-16T03:52:40;14.20;;;12.77;;
43682;SDS011;29285;52.128;21.060;2022-08-16T03:57:42;17.85;;;13.95;;
43682;SDS011;29285;52.128;21.060;2022-08-16T04:02:44;14.68;;;13.35;;
43682;SDS011;29285;52.128;21.060;2022-08-16T04:07:45;16.30;;;13.85;;
43682;SDS011;29285;52.128;21.060;2022-08-16T04:12:46;17.40;;;13.95;;
43682;SDS011;29285;52.128;21.060;2022-08-16T04:17:48;14.90;;;13.38;;
43682;SDS011;29285;52.128;21.060;2022-08-16T04:22:48;14.68;;;12.98;;
43682;SDS011;29285;52.128;21.060;2022-08-16T04:27:50;12.58;;;11.40;;
43682;SDS011;29285;52.128;21.060;2022-08-16T04:32:51;14.60;;;13.20;;
43682;SDS011;29285;52.128;21.060;2022-08-16T04:37:52;14.30;;;12.82;;
43682;SDS011;29285;52.128;21.060;2022-08-16T04:42:54;14.60;;;13.28;;
43682;SDS011;29285;52.128;21.060;2022-08-16T04:47:55;13.32;;;12.10;;
43682;SDS011;29285;52.128;21.060;2022-08-16T04:52:58;14.07;;;12.77;;
43682;SDS011;29285;52.128;21.060;2022-08-16T04:57:59;13.60;;;12.40;;
43682;SDS011;29285;52.128;21.060;2022-08-16T05:03:03;13.85;;;11.55;;
43682;SDS011;29285;52.128;21.060;2022-08-16T05:08:08;13.80;;;12.65;;
43682;SDS011;29285;52.128;21.060;2022-08-16T05:13:09;15.03;;;13.15;;
43682;SDS011;29285;52.128;21.060;2022-08-16T05:18:10;13.72;;;12.55;;
43682;SDS011;29285;52.128;21.060;2022-08-16T05:23:12;14.07;;;12.83;;
43682;SDS011;29285;52.128;21.060;2022-08-16T05:33:18;14.03;;;12.65;;
43682;SDS011;29285;52.128;21.060;2022-08-16T05:38:20;13.53;;;12.23;;
43682;SDS011;29285;52.128;21.060;2022-08-16T05:43:27;14.45;;;12.88;;
43682;SDS011;29285;52.128;21.060;2022-08-16T05:48:28;16.32;;;11.85;;
43682;SDS011;29285;52.128;21.060;2022-08-16T05:53:31;14.68;;;12.43;;
43682;SDS011;29285;52.128;21.060;2022-08-16T05:58:32;16.17;;;12.45;;
43682;SDS011;29285;52.128;21.060;2022-08-16T06:03:32;16.77;;;13.90;;
43682;SDS011;29285;52.128;21.060;2022-08-16T06:08:33;20.45;;;13.30;;
43682;SDS011;29285;52.128;21.060;2022-08-16T06:13:34;16.62;;;13.53;;
43682;SDS011;29285;52.128;21.060;2022-08-16T06:18:37;19.70;;;13.65;;
43682;SDS011;29285;52.128;21.060;2022-08-16T06:23:38;14.68;;;13.38;;
43682;SDS011;29285;52.128;21.060;2022-08-16T06:28:40;14.83;;;13.38;;
43682;SDS011;29285;52.128;21.060;2022-08-16T06:33:42;14.10;;;12.65;;
43682;SDS011;29285;52.128;21.060;2022-08-16T06:38:43;13.43;;;12.13;;
43682;SDS011;29285;52.128;21.060;2022-08-16T06:43:44;14.73;;;13.30;;
43682;SDS011;29285;52.128;21.060;2022-08-16T06:48:46;15.20;;;13.77;;
43682;SDS011;29285;52.128;21.060;2022-08-16T06:53:47;14.80;;;13.30;;
43682;SDS011;29285;52.128;21.060;2022-08-16T06:58:49;14.23;;;12.88;;
43682;SDS011;29285;52.128;21.060;2022-08-16T07:03:52;13.80;;;12.30;;
43682;SDS011;29285;52.128;21.060;2022-08-16T07:08:53;15.85;;;13.50;;
43682;SDS011;29285;52.128;21.060;2022-08-16T07:13:55;14.28;;;12.82;;
43682;SDS011;29285;52.128;21.060;2022-08-16T07:18:56;14.03;;;12.82;;
43682;SDS011;29285;52.128;21.060;2022-08-16T07:23:58;13.68;;;12.55;;
43682;SDS011;29285;52.128;21.060;2022-08-16T07:29:00;15.70;;;12.73;;
43682;SDS011;29285;52.128;21.060;2022-08-16T07:34:02;15.53;;;13.80;;
43682;SDS011;29285;52.128;21.060;2022-08-16T07:39:03;15.90;;;13.03;;
43682;SDS011;29285;52.128;21.060;2022-08-16T07:44:04;14.55;;;13.05;;
43682;SDS011;29285;52.128;21.060;2022-08-16T07:49:05;14.38;;;12.75;;
43682;SDS011;29285;52.128;21.060;2022-08-16T07:54:08;16.13;;;13.30;;
43682;SDS011;29285;52.128;21.060;2022-08-16T07:59:10;18.05;;;12.60;;
43682;SDS011;29285;52.128;21.060;2022-08-16T08:04:11;15.25;;;12.60;;
43682;SDS011;29285;52.128;21.060;2022-08-16T08:09:13;12.60;;;11.48;;
43682;SDS011;29285;52.128;21.060;2022-08-16T08:14:14;13.90;;;12.53;;
43682;SDS011;29285;52.128;21.060;2022-08-16T08:19:16;18.52;;;12.33;;
43682;SDS011;29285;52.128;21.060;2022-08-16T08:24:17;20.23;;;13.85;;
43682;SDS011;29285;52.128;21.060;2022-08-16T08:34:30;13.80;;;12.47;;
43682;SDS011;29285;52.128;21.060;2022-08-16T08:39:31;15.45;;;12.43;;
43682;SDS011;29285;52.128;21.060;2022-08-16T08:44:33;13.50;;;12.23;;
43682;SDS011;29285;52.128;21.060;2022-08-16T08:49:37;12.73;;;11.53;;
43682;SDS011;29285;52.128;21.060;2022-08-16T08:54:39;13.10;;;11.80;;
43682;SDS011;29285;52.128;21.060;2022-08-16T08:59:40;13.70;;;12.37;;
43682;SDS011;29285;52.128;21.060;2022-08-16T09:04:41;14.95;;;13.55;;
43682;SDS011;29285;52.128;21.060;2022-08-16T09:14:44;14.15;;;12.78;;
43682;SDS011;29285;52.128;21.060;2022-08-16T09:19:45;15.00;;;13.50;;
43682;SDS011;29285;52.128;21.060;2022-08-16T09:24:47;17.57;;;13.78;;
43682;SDS011;29285;52.128;21.060;2022-08-16T09:34:51;13.53;;;12.23;;
43682;SDS011;29285;52.128;21.060;2022-08-16T09:39:52;18.45;;;14.35;;
43682;SDS011;29285;52.128;21.060;2022-08-16T09:44:53;14.18;;;12.70;;
43682;SDS011;29285;52.128;21.060;2022-08-16T09:49:55;12.93;;;11.55;;
43682;SDS011;29285;52.128;21.060;2022-08-16T09:54:56;13.15;;;11.97;;
43682;SDS011;29285;52.128;21.060;2022-08-16T09:59:57;15.65;;;11.85;;
43682;SDS011;29285;52.128;21.060;2022-08-16T10:10:02;14.47;;;12.50;;
43682;SDS011;29285;52.128;21.060;2022-08-16T10:15:04;13.90;;;12.57;;
43682;SDS011;29285;52.128;21.060;2022-08-16T10:20:08;13.32;;;11.85;;
43682;SDS011;29285;52.128;21.060;2022-08-16T10:25:14;15.83;;;14.18;;
43682;SDS011;29285;52.128;21.060;2022-08-16T10:30:16;13.35;;;12.25;;
43682;SDS011;29285;52.128;21.060;2022-08-16T10:35:18;14.78;;;11.25;;
43682;SDS011;29285;52.128;21.060;2022-08-16T10:40:19;11.60;;;10.40;;
43682;SDS011;29285;52.128;21.060;2022-08-16T10:45:21;15.58;;;10.28;;
43682;SDS011;29285;52.128;21.060;2022-08-16T10:50:22;14.00;;;10.43;;
43682;SDS011;29285;52.128;21.060;2022-08-16T10:55:23;11.43;;;10.28;;
43682;SDS011;29285;52.128;21.060;2022-08-16T11:00:26;11.53;;;10.20;;
43682;SDS011;29285;52.128;21.060;2022-08-16T11:05:27;11.85;;;10.58;;
43682;SDS011;29285;52.128;21.060;2022-08-16T11:10:35;11.50;;;10.18;;
43682;SDS011;29285;52.128;21.060;2022-08-16T11:15:40;14.30;;;10.13;;
43682;SDS011;29285;52.128;21.060;2022-08-16T11:20:42;14.58;;;9.40;;
43682;SDS011;29285;52.128;21.060;2022-08-16T11:25:46;25.72;;;11.40;;
43682;SDS011;29285;52.128;21.060;2022-08-16T11:30:48;15.85;;;11.03;;
43682;SDS011;29285;52.128;21.060;2022-08-16T11:35:49;13.32;;;11.38;;
43682;SDS011;29285;52.128;21.060;2022-08-16T11:40:53;15.10;;;11.73;;
43682;SDS011;29285;52.128;21.060;2022-08-16T11:45:57;13.28;;;11.88;;
43682;SDS011;29285;52.128;21.060;2022-08-16T11:51:00;12.63;;;11.35;;
43682;SDS011;29285;52.128;21.060;2022-08-16T11:56:03;17.48;;;12.37;;
43682;SDS011;29285;52.128;21.060;2022-08-16T12:01:05;13.45;;;12.25;;
43682;SDS011;29285;52.128;21.060;2022-08-16T12:06:11;13.53;;;11.97;;
43682;SDS011;29285;52.128;21.060;2022-08-16T12:11:15;13.90;;;12.50;;
43682;SDS011;29285;52.128;21.060;2022-08-16T12:16:18;23.60;;;13.40;;
43682;SDS011;29285;52.128;21.060;2022-08-16T12:21:20;16.82;;;13.45;;
43682;SDS011;29285;52.128;21.060;2022-08-16T12:26:21;13.40;;;11.78;;
43682;SDS011;29285;52.128;21.060;2022-08-16T12:31:23;14.07;;;12.88;;
43682;SDS011;29285;52.128;21.060;2022-08-16T12:36:25;19.62;;;13.15;;
43682;SDS011;29285;52.128;21.060;2022-08-16T12:41:27;15.93;;;13.17;;
43682;SDS011;29285;52.128;21.060;2022-08-16T12:46:31;14.75;;;13.30;;
43682;SDS011;29285;52.128;21.060;2022-08-16T12:56:37;12.80;;;11.50;;
43682;SDS011;29285;52.128;21.060;2022-08-16T13:01:39;14.10;;;12.47;;
43682;SDS011;29285;52.128;21.060;2022-08-16T13:06:41;13.33;;;11.93;;
43682;SDS011;29285;52.128;21.060;2022-08-16T13:11:45;12.05;;;9.45;;
43682;SDS011;29285;52.128;21.060;2022-08-16T13:16:59;10.72;;;7.95;;
43682;SDS011;29285;52.128;21.060;2022-08-16T13:22:02;9.33;;;8.25;;
43682;SDS011;29285;52.128;21.060;2022-08-16T13:27:03;9.13;;;8.33;;
43682;SDS011;29285;52.128;21.060;2022-08-16T13:32:05;10.23;;;9.10;;
43682;SDS011;29285;52.128;21.060;2022-08-16T13:37:06;11.73;;;8.68;;
43682;SDS011;29285;52.128;21.060;2022-08-16T13:42:11;11.65;;;7.20;;
43682;SDS011;29285;52.128;21.060;2022-08-16T13:47:12;9.08;;;8.23;;
43682;SDS011;29285;52.128;21.060;2022-08-16T13:52:14;12.47;;;8.80;;
43682;SDS011;29285;52.128;21.060;2022-08-16T13:57:15;13.20;;;8.05;;
43682;SDS011;29285;52.128;21.060;2022-08-16T14:02:16;9.50;;;8.60;;
43682;SDS011;29285;52.128;21.060;2022-08-16T14:07:17;16.02;;;8.85;;
43682;SDS011;29285;52.128;21.060;2022-08-16T14:12:23;9.83;;;7.95;;
43682;SDS011;29285;52.128;21.060;2022-08-16T14:17:28;9.50;;;8.48;;
43682;SDS011;29285;52.128;21.060;2022-08-16T14:22:30;8.53;;;6.97;;
43682;SDS011;29285;52.128;21.060;2022-08-16T14:27:34;24.85;;;8.23;;
43682;SDS011;29285;52.128;21.060;2022-08-16T14:32:36;9.05;;;7.55;;
43682;SDS011;29285;52.128;21.060;2022-08-16T14:37:38;11.10;;;7.27;;
43682;SDS011;29285;52.128;21.060;2022-08-16T14:42:40;9.00;;;6.75;;
43682;SDS011;29285;52.128;21.060;2022-08-16T14:47:42;13.35;;;7.22;;
43682;SDS011;29285;52.128;21.060;2022-08-16T14:52:45;9.65;;;7.53;;
43682;SDS011;29285;52.128;21.060;2022-08-16T14:57:50;11.65;;;7.30;;
43682;SDS011;29285;52.128;21.060;2022-08-16T15:02:52;14.05;;;8.33;;
43682;SDS011;29285;52.128;21.060;2022-08-16T15:07:56;9.08;;;8.05;;
43682;SDS011;29285;52.128;21.060;2022-08-16T15:12:58;11.25;;;8.80;;
43682;SDS011;29285;52.128;21.060;2022-08-16T15:18:00;16.00;;;8.98;;
43682;SDS011;29285;52.128;21.060;2022-08-16T15:23:03;15.30;;;8.98;;
43682;SDS011;29285;52.128;21.060;2022-08-16T15:28:08;13.00;;;8.45;;
43682;SDS011;29285;52.128;21.060;2022-08-16T15:33:14;9.08;;;8.23;;
43682;SDS011;29285;52.128;21.060;2022-08-16T15:38:18;10.75;;;9.73;;
43682;SDS011;29285;52.128;21.060;2022-08-16T15:43:19;13.87;;;10.33;;
43682;SDS011;29285;52.128;21.060;2022-08-16T15:48:20;9.70;;;8.90;;
43682;SDS011;29285;52.128;21.060;2022-08-16T15:53:22;8.65;;;7.72;;
43682;SDS011;29285;52.128;21.060;2022-08-16T15:58:25;13.03;;;9.13;;
43682;SDS011;29285;52.128;21.060;2022-08-16T16:03:28;10.75;;;8.50;;
43682;SDS011;29285;52.128;21.060;2022-08-16T16:08:29;9.98;;;8.65;;
43682;SDS011;29285;52.128;21.060;2022-08-16T16:13:32;12.05;;;9.90;;
43682;SDS011;29285;52.128;21.060;2022-08-16T16:18:34;13.00;;;9.33;;
43682;SDS011;29285;52.128;21.060;2022-08-16T16:23:40;9.35;;;8.45;;
43682;SDS011;29285;52.128;21.060;2022-08-16T16:28:45;10.65;;;9.43;;
43682;SDS011;29285;52.128;21.060;2022-08-16T16:33:48;11.57;;;9.30;;
43682;SDS011;29285;52.128;21.060;2022-08-16T16:38:54;13.53;;;9.95;;
43682;SDS011;29285;52.128;21.060;2022-08-16T16:43:56;12.10;;;10.23;;
43682;SDS011;29285;52.128;21.060;2022-08-16T16:49:01;15.03;;;9.98;;
43682;SDS011;29285;52.128;21.060;2022-08-16T16:54:07;14.98;;;13.55;;
43682;SDS011;29285;52.128;21.060;2022-08-16T16:59:09;13.43;;;9.70;;
43682;SDS011;29285;52.128;21.060;2022-08-16T17:04:12;15.77;;;9.47;;
43682;SDS011;29285;52.128;21.060;2022-08-16T17:09:15;12.25;;;9.50;;
43682;SDS011;29285;52.128;21.060;2022-08-16T17:14:16;9.15;;;8.35;;
43682;SDS011;29285;52.128;21.060;2022-08-16T17:19:17;11.70;;;9.50;;
43682;SDS011;29285;52.128;21.060;2022-08-16T17:24:19;13.78;;;9.58;;
43682;SDS011;29285;52.128;21.060;2022-08-16T17:29:20;12.03;;;9.00;;
43682;SDS011;29285;52.128;21.060;2022-08-16T17:34:21;11.03;;;10.13;;
43682;SDS011;29285;52.128;21.060;2022-08-16T17:39:24;9.65;;;8.75;;
43682;SDS011;29285;52.128;21.060;2022-08-16T17:44:26;12.50;;;9.40;;
43682;SDS011;29285;52.128;21.060;2022-08-16T17:49:27;10.95;;;9.25;;
43682;SDS011;29285;52.128;21.060;2022-08-16T17:54:29;12.50;;;9.45;;
43682;SDS011;29285;52.128;21.060;2022-08-16T17:59:30;10.77;;;9.50;;
43682;SDS011;29285;52.128;21.060;2022-08-16T18:04:32;11.55;;;8.83;;
43682;SDS011;29285;52.128;21.060;2022-08-16T18:09:33;11.53;;;10.38;;
43682;SDS011;29285;52.128;21.060;2022-08-16T18:14:35;11.03;;;9.28;;
43682;SDS011;29285;52.128;21.060;2022-08-16T18:19:36;10.82;;;9.78;;
43682;SDS011;29285;52.128;21.060;2022-08-16T18:24:38;11.08;;;9.93;;
43682;SDS011;29285;52.128;21.060;2022-08-16T18:29:40;12.25;;;10.70;;
43682;SDS011;29285;52.128;21.060;2022-08-16T18:34:43;10.30;;;9.40;;
43682;SDS011;29285;52.128;21.060;2022-08-16T18:39:44;14.10;;;10.63;;
43682;SDS011;29285;52.128;21.060;2022-08-16T18:44:45;12.20;;;10.45;;
43682;SDS011;29285;52.128;21.060;2022-08-16T18:49:46;10.68;;;9.65;;
43682;SDS011;29285;52.128;21.060;2022-08-16T18:54:47;11.40;;;9.70;;
43682;SDS011;29285;52.128;21.060;2022-08-16T18:59:48;11.30;;;10.20;;
43682;SDS011;29285;52.128;21.060;2022-08-16T19:04:49;11.78;;;10.58;;
43682;SDS011;29285;52.128;21.060;2022-08-16T19:09:50;12.43;;;10.95;;
43682;SDS011;29285;52.128;21.060;2022-08-16T19:14:51;14.10;;;10.93;;
43682;SDS011;29285;52.128;21.060;2022-08-16T19:19:53;11.43;;;10.15;;
43682;SDS011;29285;52.128;21.060;2022-08-16T19:24:54;12.95;;;10.98;;
43682;SDS011;29285;52.128;21.060;2022-08-16T19:29:55;12.20;;;10.82;;
43682;SDS011;29285;52.128;21.060;2022-08-16T19:34:57;15.03;;;11.53;;
43682;SDS011;29285;52.128;21.060;2022-08-16T19:40:00;12.50;;;11.30;;
43682;SDS011;29285;52.128;21.060;2022-08-16T19:45:01;15.95;;;10.45;;
43682;SDS011;29285;52.128;21.060;2022-08-16T19:50:05;15.40;;;11.68;;
43682;SDS011;29285;52.128;21.060;2022-08-16T19:55:07;17.35;;;12.07;;
43682;SDS011;29285;52.128;21.060;2022-08-16T20:00:12;14.98;;;13.15;;
43682;SDS011;29285;52.128;21.060;2022-08-16T20:05:19;15.35;;;11.48;;
43682;SDS011;29285;52.128;21.060;2022-08-16T20:10:28;16.60;;;12.80;;
43682;SDS011;29285;52.128;21.060;2022-08-16T20:15:30;17.47;;;11.90;;
43682;SDS011;29285;52.128;21.060;2022-08-16T20:20:31;14.53;;;11.20;;
43682;SDS011;29285;52.128;21.060;2022-08-16T20:25:32;14.03;;;12.60;;
43682;SDS011;29285;52.128;21.060;2022-08-16T20:30:33;14.18;;;12.37;;
43682;SDS011;29285;52.128;21.060;2022-08-16T20:35:35;18.10;;;12.90;;
43682;SDS011;29285;52.128;21.060;2022-08-16T20:40:36;15.32;;;13.65;;
43682;SDS011;29285;52.128;21.060;2022-08-16T20:45:42;15.95;;;13.13;;
43682;SDS011;29285;52.128;21.060;2022-08-16T20:50:44;16.60;;;13.28;;
43682;SDS011;29285;52.128;21.060;2022-08-16T20:55:46;16.67;;;12.40;;
43682;SDS011;29285;52.128;21.060;2022-08-16T21:00:47;15.10;;;12.37;;
43682;SDS011;29285;52.128;21.060;2022-08-16T21:05:48;13.88;;;12.13;;
43682;SDS011;29285;52.128;21.060;2022-08-16T21:10:49;15.60;;;13.90;;
43682;SDS011;29285;52.128;21.060;2022-08-16T21:15:51;15.80;;;13.80;;
43682;SDS011;29285;52.128;21.060;2022-08-16T21:20:52;16.20;;;13.03;;
43682;SDS011;29285;52.128;21.060;2022-08-16T21:25:54;15.75;;;13.03;;
43682;SDS011;29285;52.128;21.060;2022-08-16T21:30:55;19.80;;;14.20;;
43682;SDS011;29285;52.128;21.060;2022-08-16T21:35:56;16.27;;;13.58;;
43682;SDS011;29285;52.128;21.060;2022-08-16T21:40:57;19.80;;;13.55;;
43682;SDS011;29285;52.128;21.060;2022-08-16T21:46:00;14.93;;;13.38;;
43682;SDS011;29285;52.128;21.060;2022-08-16T21:51:04;16.45;;;14.63;;
43682;SDS011;29285;52.128;21.060;2022-08-16T21:56:08;15.40;;;14.00;;
43682;SDS011;29285;52.128;21.060;2022-08-16T22:01:10;18.17;;;13.80;;
43682;SDS011;29285;52.128;21.060;2022-08-16T22:06:11;16.02;;;14.53;;
43682;SDS011;29285;52.128;21.060;2022-08-16T22:11:16;16.12;;;13.58;;
43682;SDS011;29285;52.128;21.060;2022-08-16T22:16:24;14.65;;;13.32;;
43682;SDS011;29285;52.128;21.060;2022-08-16T22:21:29;16.15;;;13.98;;
43682;SDS011;29285;52.128;21.060;2022-08-16T22:26:33;16.00;;;14.38;;
43682;SDS011;29285;52.128;21.060;2022-08-16T22:31:36;16.42;;;14.93;;
43682;SDS011;29285;52.128;21.060;2022-08-16T22:36:40;16.37;;;14.35;;
43682;SDS011;29285;52.128;21.060;2022-08-16T22:41:41;16.02;;;14.43;;
43682;SDS011;29285;52.128;21.060;2022-08-16T22:46:44;15.70;;;14.20;;
43682;SDS011;29285;52.128;21.060;2022-08-16T22:51:45;19.00;;;13.88;;
43682;SDS011;29285;52.128;21.060;2022-08-16T22:56:47;19.37;;;14.25;;
43682;SDS011;29285;52.128;21.060;2022-08-16T23:01:48;17.77;;;15.68;;
43682;SDS011;29285;52.128;21.060;2022-08-16T23:06:50;16.35;;;14.65;;
43682;SDS011;29285;52.128;21.060;2022-08-16T23:11:51;20.88;;;15.18;;
43682;SDS011;29285;52.128;21.060;2022-08-16T23:16:52;15.40;;;13.85;;
43682;SDS011;29285;52.128;21.060;2022-08-16T23:21:53;16.27;;;14.65;;
43682;SDS011;29285;52.128;21.060;2022-08-16T23:26:55;15.30;;;13.90;;
43682;SDS011;29285;52.128;21.060;2022-08-16T23:31:57;17.42;;;15.78;;
43682;SDS011;29285;52.128;21.060;2022-08-16T23:37:04;17.90;;;15.78;;
43682;SDS011;29285;52.128;21.060;2022-08-16T23:42:12;18.10;;;15.10;;
43682;SDS011;29285;52.128;21.060;2022-08-16T23:47:15;16.70;;;14.95;;
43682;SDS011;29285;52.128;21.060;2022-08-16T23:52:16;17.12;;;15.32;;
43682;SDS011;29285;52.128;21.060;2022-08-16T23:57:17;17.50;;;15.58;;
